sensor_id;sensor_type;location;lat;lon;timestamp;P1;durP1;ratioP1;P2;durP2;ratioP2
75744;SDS011;64359;51.366;-0.222;2022-11-20T00:00:44;3.50;;;2.10;;
75744;SDS011;64359;51.366;-0.222;2022-11-20T00:01:48;2.60;;;2.40;;
75744;SDS011;64359;51.366;-0.222;2022-11-20T00:02:53;3.70;;;2.20;;
75744;SDS011;64359;51.366;-0.222;2022-11-20T00:03:57;3.10;;;2.80;;
75744;SDS011;64359;51.366;-0.222;2022-11-20T00:05:02;3.40;;;2.70;;
75744;SDS011;64359;51.366;-0.222;2022-11-20T00:06:07;3.10;;;2.20;;
75744;SDS011;64359;51.366;-0.222;2022-11-20T00:07:14;3.60;;;2.40;;
75744;SDS011;64359;51.366;-0.222;2022-11-20T00:08:18;3.60;;;2.20;;
75744;SDS011;64359;51.366;-0.222;2022-11-20T00:09:23;2.90;;;2.20;;
75744;SDS011;64359;51.366;-0.222;2022-11-20T00:10:27;3.40;;;2.40;;
75744;SDS011;64359;51.366;-0.222;2022-11-20T00:11:32;3.10;;;2.50;;
75744;SDS011;64359;51.366;-0.222;2022-11-20T00:12:36;7.90;;;2.50;;
75744;SDS011;64359;51.366;-0.222;2022-11-20T00:13:40;3.50;;;3.10;;
75744;SDS011;64359;51.366;-0.222;2022-11-20T00:14:45;3.60;;;2.40;;
75744;SDS011;64359;51.366;-0.222;2022-11-20T00:15:50;4.20;;;2.00;;
75744;SDS011;64359;51.366;-0.222;2022-11-20T00:17:01;3.00;;;2.70;;
75744;SDS011;64359;51.366;-0.222;2022-11-20T00:18:05;2.70;;;2.10;;
75744;SDS011;64359;51.366;-0.222;2022-11-20T00:19:10;3.50;;;2.20;;
75744;SDS011;64359;51.366;-0.222;2022-11-20T00:20:14;3.00;;;2.10;;
75744;SDS011;64359;51.366;-0.222;2022-11-20T00:21:19;3.70;;;2.70;;
75744;SDS011;64359;51.366;-0.222;2022-11-20T00:22:25;4.30;;;3.00;;
75744;SDS011;64359;51.366;-0.222;2022-11-20T00:23:30;3.10;;;2.40;;
75744;SDS011;64359;51.366;-0.222;2022-11-20T00:24:34;2.90;;;2.20;;
75744;SDS011;64359;51.366;-0.222;2022-11-20T00:25:39;3.00;;;2.10;;
75744;SDS011;64359;51.366;-0.222;2022-11-20T00:26:43;2.60;;;2.40;;
75744;SDS011;64359;51.366;-0.222;2022-11-20T00:27:47;2.70;;;2.00;;
75744;SDS011;64359;51.366;-0.222;2022-11-20T00:28:53;4.20;;;2.60;;
75744;SDS011;64359;51.366;-0.222;2022-11-20T00:29:58;4.00;;;2.00;;
75744;SDS011;64359;51.366;-0.222;2022-11-20T00:31:03;2.30;;;2.00;;
75744;SDS011;64359;51.366;-0.222;2022-11-20T00:32:10;2.80;;;2.50;;
75744;SDS011;64359;51.366;-0.222;2022-11-20T00:33:14;3.10;;;1.80;;
75744;SDS011;64359;51.366;-0.222;2022-11-20T00:34:18;2.80;;;2.00;;
75744;SDS011;64359;51.366;-0.222;2022-11-20T00:35:23;3.10;;;2.40;;
75744;SDS011;64359;51.366;-0.222;2022-11-20T00:36:28;3.80;;;2.60;;
75744;SDS011;64359;51.366;-0.222;2022-11-20T00:37:34;2.90;;;2.50;;
75744;SDS011;64359;51.366;-0.222;2022-11-20T00:38:38;2.70;;;2.10;;
75744;SDS011;64359;51.366;-0.222;2022-11-20T00:39:43;3.60;;;1.80;;
75744;SDS011;64359;51.366;-0.222;2022-11-20T00:40:47;2.80;;;2.40;;
75744;SDS011;64359;51.366;-0.222;2022-11-20T00:41:59;2.50;;;2.00;;
75744;SDS011;64359;51.366;-0.222;2022-11-20T00:43:03;3.20;;;2.60;;
75744;SDS011;64359;51.366;-0.222;2022-11-20T00:44:08;3.00;;;2.70;;
75744;SDS011;64359;51.366;-0.222;2022-11-20T00:45:12;2.90;;;2.20;;
75744;SDS011;64359;51.366;-0.222;2022-11-20T00:46:17;2.90;;;1.90;;
75744;SDS011;64359;51.366;-0.222;2022-11-20T00:47:23;3.50;;;2.40;;
75744;SDS011;64359;51.366;-0.222;2022-11-20T00:48:27;3.30;;;3.00;;
75744;SDS011;64359;51.366;-0.222;2022-11-20T00:49:32;2.80;;;2.00;;
75744;SDS011;64359;51.366;-0.222;2022-11-20T00:50:36;2.30;;;1.90;;
75744;SDS011;64359;51.366;-0.222;2022-11-20T00:51:41;2.70;;;2.10;;
75744;SDS011;64359;51.366;-0.222;2022-11-20T00:52:45;2.60;;;2.40;;
75744;SDS011;64359;51.366;-0.222;2022-11-20T00:53:50;2.40;;;2.10;;
75744;SDS011;64359;51.366;-0.222;2022-11-20T00:54:54;2.60;;;1.90;;
75744;SDS011;64359;51.366;-0.222;2022-11-20T00:55:59;3.50;;;2.10;;
75744;SDS011;64359;51.366;-0.222;2022-11-20T00:57:05;2.30;;;2.00;;
75744;SDS011;64359;51.366;-0.222;2022-11-20T00:58:10;2.30;;;1.90;;
75744;SDS011;64359;51.366;-0.222;2022-11-20T00:59:14;2.90;;;2.10;;
75744;SDS011;64359;51.366;-0.222;2022-11-20T01:00:19;2.80;;;1.90;;
75744;SDS011;64359;51.366;-0.222;2022-11-20T01:01:24;3.00;;;2.40;;
75744;SDS011;64359;51.366;-0.222;2022-11-20T01:02:30;1.80;;;1.70;;
75744;SDS011;64359;51.366;-0.222;2022-11-20T01:03:35;3.20;;;2.60;;
75744;SDS011;64359;51.366;-0.222;2022-11-20T01:04:41;4.20;;;1.90;;
75744;SDS011;64359;51.366;-0.222;2022-11-20T01:05:45;3.30;;;2.40;;
75744;SDS011;64359;51.366;-0.222;2022-11-20T01:06:50;2.30;;;1.60;;
75744;SDS011;64359;51.366;-0.222;2022-11-20T01:07:54;2.60;;;2.30;;
75744;SDS011;64359;51.366;-0.222;2022-11-20T01:09:00;2.20;;;2.00;;
75744;SDS011;64359;51.366;-0.222;2022-11-20T01:10:06;1.80;;;1.70;;
75744;SDS011;64359;51.366;-0.222;2022-11-20T01:11:12;1.80;;;1.60;;
75744;SDS011;64359;51.366;-0.222;2022-11-20T01:12:17;2.60;;;1.80;;
75744;SDS011;64359;51.366;-0.222;2022-11-20T01:13:22;2.30;;;1.70;;
75744;SDS011;64359;51.366;-0.222;2022-11-20T01:14:42;2.40;;;2.20;;
75744;SDS011;64359;51.366;-0.222;2022-11-20T01:15:46;3.00;;;1.70;;
75744;SDS011;64359;51.366;-0.222;2022-11-20T01:16:51;2.90;;;1.90;;
75744;SDS011;64359;51.366;-0.222;2022-11-20T01:17:55;2.20;;;1.80;;
75744;SDS011;64359;51.366;-0.222;2022-11-20T01:19:00;2.30;;;1.70;;
75744;SDS011;64359;51.366;-0.222;2022-11-20T01:20:07;2.50;;;1.50;;
75744;SDS011;64359;51.366;-0.222;2022-11-20T01:21:13;1.90;;;1.60;;
75744;SDS011;64359;51.366;-0.222;2022-11-20T01:22:19;2.00;;;1.80;;
75744;SDS011;64359;51.366;-0.222;2022-11-20T01:23:23;2.30;;;2.10;;
75744;SDS011;64359;51.366;-0.222;2022-11-20T01:24:27;2.60;;;2.10;;
75744;SDS011;64359;51.366;-0.222;2022-11-20T01:25:32;3.00;;;1.90;;
75744;SDS011;64359;51.366;-0.222;2022-11-20T01:26:38;2.00;;;1.60;;
75744;SDS011;64359;51.366;-0.222;2022-11-20T01:27:44;2.60;;;2.10;;
75744;SDS011;64359;51.366;-0.222;2022-11-20T01:28:48;1.80;;;1.50;;
75744;SDS011;64359;51.366;-0.222;2022-11-20T01:29:53;3.30;;;2.20;;
75744;SDS011;64359;51.366;-0.222;2022-11-20T01:30:57;2.50;;;2.10;;
75744;SDS011;64359;51.366;-0.222;2022-11-20T01:32:02;1.90;;;1.50;;
75744;SDS011;64359;51.366;-0.222;2022-11-20T01:33:07;1.70;;;1.60;;
75744;SDS011;64359;51.366;-0.222;2022-11-20T01:36:02;2.10;;;1.90;;
75744;SDS011;64359;51.366;-0.222;2022-11-20T01:37:08;3.20;;;2.40;;
75744;SDS011;64359;51.366;-0.222;2022-11-20T01:38:12;2.40;;;1.80;;
75744;SDS011;64359;51.366;-0.222;2022-11-20T01:39:20;3.00;;;1.90;;
75744;SDS011;64359;51.366;-0.222;2022-11-20T01:40:25;2.10;;;1.70;;
75744;SDS011;64359;51.366;-0.222;2022-11-20T01:41:30;1.80;;;1.50;;
75744;SDS011;64359;51.366;-0.222;2022-11-20T01:42:53;2.80;;;1.80;;
75744;SDS011;64359;51.366;-0.222;2022-11-20T01:46:08;2.00;;;1.50;;
75744;SDS011;64359;51.366;-0.222;2022-11-20T01:47:19;1.90;;;1.50;;
75744;SDS011;64359;51.366;-0.222;2022-11-20T01:48:28;2.20;;;1.60;;
75744;SDS011;64359;51.366;-0.222;2022-11-20T01:49:39;2.40;;;1.60;;
75744;SDS011;64359;51.366;-0.222;2022-11-20T01:50:46;2.00;;;1.60;;
75744;SDS011;64359;51.366;-0.222;2022-11-20T01:51:52;1.80;;;1.60;;
75744;SDS011;64359;51.366;-0.222;2022-11-20T01:53:02;2.50;;;1.50;;
75744;SDS011;64359;51.366;-0.222;2022-11-20T01:54:11;2.40;;;1.50;;
75744;SDS011;64359;51.366;-0.222;2022-11-20T01:55:19;2.10;;;1.90;;
75744;SDS011;64359;51.366;-0.222;2022-11-20T01:56:27;2.60;;;1.70;;
75744;SDS011;64359;51.366;-0.222;2022-11-20T01:57:34;2.50;;;1.60;;
75744;SDS011;64359;51.366;-0.222;2022-11-20T01:58:40;2.20;;;2.00;;
75744;SDS011;64359;51.366;-0.222;2022-11-20T01:59:48;3.30;;;1.60;;
75744;SDS011;64359;51.366;-0.222;2022-11-20T02:00:57;2.30;;;2.00;;
75744;SDS011;64359;51.366;-0.222;2022-11-20T02:02:02;2.30;;;2.10;;
75744;SDS011;64359;51.366;-0.222;2022-11-20T02:03:07;2.00;;;1.50;;
75744;SDS011;64359;51.366;-0.222;2022-11-20T02:04:15;2.00;;;1.80;;
75744;SDS011;64359;51.366;-0.222;2022-11-20T02:05:22;2.10;;;1.90;;
75744;SDS011;64359;51.366;-0.222;2022-11-20T02:06:35;2.00;;;1.80;;
75744;SDS011;64359;51.366;-0.222;2022-11-20T02:07:43;2.30;;;2.10;;
75744;SDS011;64359;51.366;-0.222;2022-11-20T02:08:49;3.50;;;2.50;;
75744;SDS011;64359;51.366;-0.222;2022-11-20T02:09:54;2.70;;;2.30;;
75744;SDS011;64359;51.366;-0.222;2022-11-20T02:10:59;2.10;;;1.90;;
75744;SDS011;64359;51.366;-0.222;2022-11-20T02:12:03;2.60;;;2.00;;
75744;SDS011;64359;51.366;-0.222;2022-11-20T02:13:28;2.20;;;1.50;;
75744;SDS011;64359;51.366;-0.222;2022-11-20T02:14:47;2.00;;;1.80;;
75744;SDS011;64359;51.366;-0.222;2022-11-20T02:15:52;2.70;;;1.80;;
75744;SDS011;64359;51.366;-0.222;2022-11-20T02:16:56;1.40;;;1.20;;
75744;SDS011;64359;51.366;-0.222;2022-11-20T02:18:01;2.10;;;1.60;;
75744;SDS011;64359;51.366;-0.222;2022-11-20T02:19:07;1.80;;;1.70;;
75744;SDS011;64359;51.366;-0.222;2022-11-20T02:20:19;3.30;;;1.50;;
75744;SDS011;64359;51.366;-0.222;2022-11-20T02:21:29;2.10;;;1.80;;
75744;SDS011;64359;51.366;-0.222;2022-11-20T02:22:41;1.90;;;1.70;;
75744;SDS011;64359;51.366;-0.222;2022-11-20T02:23:57;2.50;;;2.00;;
75744;SDS011;64359;51.366;-0.222;2022-11-20T02:25:04;2.20;;;2.00;;
75744;SDS011;64359;51.366;-0.222;2022-11-20T02:26:12;2.90;;;1.40;;
75744;SDS011;64359;51.366;-0.222;2022-11-20T02:27:18;1.80;;;1.70;;
75744;SDS011;64359;51.366;-0.222;2022-11-20T02:28:23;2.00;;;1.40;;
75744;SDS011;64359;51.366;-0.222;2022-11-20T02:29:32;1.80;;;1.60;;
75744;SDS011;64359;51.366;-0.222;2022-11-20T02:30:40;2.70;;;1.60;;
75744;SDS011;64359;51.366;-0.222;2022-11-20T02:31:44;1.50;;;1.30;;
75744;SDS011;64359;51.366;-0.222;2022-11-20T02:32:49;2.00;;;1.50;;
75744;SDS011;64359;51.366;-0.222;2022-11-20T02:36:01;2.10;;;1.60;;
75744;SDS011;64359;51.366;-0.222;2022-11-20T02:37:06;2.00;;;1.50;;
75744;SDS011;64359;51.366;-0.222;2022-11-20T02:38:10;2.30;;;1.60;;
75744;SDS011;64359;51.366;-0.222;2022-11-20T02:39:15;2.70;;;1.80;;
75744;SDS011;64359;51.366;-0.222;2022-11-20T02:40:21;1.40;;;1.30;;
75744;SDS011;64359;51.366;-0.222;2022-11-20T02:41:31;2.20;;;2.00;;
75744;SDS011;64359;51.366;-0.222;2022-11-20T02:42:37;1.80;;;1.40;;
75744;SDS011;64359;51.366;-0.222;2022-11-20T02:43:41;2.30;;;1.80;;
75744;SDS011;64359;51.366;-0.222;2022-11-20T02:44:46;2.20;;;1.30;;
75744;SDS011;64359;51.366;-0.222;2022-11-20T02:45:50;3.50;;;2.30;;
75744;SDS011;64359;51.366;-0.222;2022-11-20T02:46:56;3.00;;;1.40;;
75744;SDS011;64359;51.366;-0.222;2022-11-20T02:48:01;2.40;;;1.30;;
75744;SDS011;64359;51.366;-0.222;2022-11-20T02:49:05;1.90;;;1.20;;
75744;SDS011;64359;51.366;-0.222;2022-11-20T02:50:10;2.30;;;1.40;;
75744;SDS011;64359;51.366;-0.222;2022-11-20T02:51:14;1.80;;;1.60;;
75744;SDS011;64359;51.366;-0.222;2022-11-20T02:52:19;1.30;;;1.20;;
75744;SDS011;64359;51.366;-0.222;2022-11-20T02:53:23;2.50;;;1.30;;
75744;SDS011;64359;51.366;-0.222;2022-11-20T02:54:28;2.60;;;1.60;;
75744;SDS011;64359;51.366;-0.222;2022-11-20T02:55:32;2.40;;;1.40;;
75744;SDS011;64359;51.366;-0.222;2022-11-20T02:56:38;3.00;;;1.50;;
75744;SDS011;64359;51.366;-0.222;2022-11-20T02:57:43;2.40;;;1.50;;
75744;SDS011;64359;51.366;-0.222;2022-11-20T02:58:47;3.10;;;1.80;;
75744;SDS011;64359;51.366;-0.222;2022-11-20T02:59:52;2.00;;;1.50;;
75744;SDS011;64359;51.366;-0.222;2022-11-20T03:00:56;2.80;;;1.90;;
75744;SDS011;64359;51.366;-0.222;2022-11-20T03:02:00;2.20;;;1.60;;
75744;SDS011;64359;51.366;-0.222;2022-11-20T03:03:05;2.80;;;1.80;;
75744;SDS011;64359;51.366;-0.222;2022-11-20T03:04:09;1.30;;;1.20;;
75744;SDS011;64359;51.366;-0.222;2022-11-20T03:05:14;2.60;;;1.40;;
75744;SDS011;64359;51.366;-0.222;2022-11-20T03:06:18;2.30;;;1.70;;
75744;SDS011;64359;51.366;-0.222;2022-11-20T03:07:22;1.70;;;1.40;;
75744;SDS011;64359;51.366;-0.222;2022-11-20T03:08:28;1.70;;;1.30;;
75744;SDS011;64359;51.366;-0.222;2022-11-20T03:09:32;1.50;;;1.40;;
75744;SDS011;64359;51.366;-0.222;2022-11-20T03:10:36;2.00;;;1.60;;
75744;SDS011;64359;51.366;-0.222;2022-11-20T03:11:41;2.70;;;1.40;;
75744;SDS011;64359;51.366;-0.222;2022-11-20T03:12:45;1.60;;;1.40;;
75744;SDS011;64359;51.366;-0.222;2022-11-20T03:13:50;1.50;;;1.30;;
75744;SDS011;64359;51.366;-0.222;2022-11-20T03:14:54;2.70;;;1.20;;
75744;SDS011;64359;51.366;-0.222;2022-11-20T03:16:03;2.20;;;1.60;;
75744;SDS011;64359;51.366;-0.222;2022-11-20T03:17:09;2.80;;;2.20;;
75744;SDS011;64359;51.366;-0.222;2022-11-20T03:18:14;2.00;;;1.80;;
75744;SDS011;64359;51.366;-0.222;2022-11-20T03:19:18;2.50;;;1.90;;
75744;SDS011;64359;51.366;-0.222;2022-11-20T03:20:23;1.70;;;1.20;;
75744;SDS011;64359;51.366;-0.222;2022-11-20T03:21:27;2.90;;;1.90;;
75744;SDS011;64359;51.366;-0.222;2022-11-20T03:22:31;1.60;;;1.50;;
75744;SDS011;64359;51.366;-0.222;2022-11-20T03:23:37;2.40;;;1.80;;
75744;SDS011;64359;51.366;-0.222;2022-11-20T03:24:42;4.10;;;1.70;;
75744;SDS011;64359;51.366;-0.222;2022-11-20T03:25:47;1.50;;;1.40;;
75744;SDS011;64359;51.366;-0.222;2022-11-20T03:26:52;2.20;;;1.50;;
75744;SDS011;64359;51.366;-0.222;2022-11-20T03:27:56;1.70;;;1.50;;
75744;SDS011;64359;51.366;-0.222;2022-11-20T03:29:01;1.50;;;1.40;;
75744;SDS011;64359;51.366;-0.222;2022-11-20T03:30:07;1.40;;;1.30;;
75744;SDS011;64359;51.366;-0.222;2022-11-20T03:31:13;1.90;;;1.60;;
75744;SDS011;64359;51.366;-0.222;2022-11-20T03:32:19;1.90;;;1.20;;
75744;SDS011;64359;51.366;-0.222;2022-11-20T03:33:23;1.80;;;1.30;;
75744;SDS011;64359;51.366;-0.222;2022-11-20T03:36:02;1.70;;;1.20;;
75744;SDS011;64359;51.366;-0.222;2022-11-20T03:37:08;1.40;;;1.30;;
75744;SDS011;64359;51.366;-0.222;2022-11-20T03:38:12;1.40;;;1.30;;
75744;SDS011;64359;51.366;-0.222;2022-11-20T03:39:17;2.40;;;1.40;;
75744;SDS011;64359;51.366;-0.222;2022-11-20T03:40:21;2.60;;;2.00;;
75744;SDS011;64359;51.366;-0.222;2022-11-20T03:41:26;2.20;;;1.30;;
75744;SDS011;64359;51.366;-0.222;2022-11-20T03:42:32;2.50;;;1.50;;
75744;SDS011;64359;51.366;-0.222;2022-11-20T03:43:49;2.20;;;1.10;;
75744;SDS011;64359;51.366;-0.222;2022-11-20T03:44:55;1.70;;;1.10;;
75744;SDS011;64359;51.366;-0.222;2022-11-20T03:45:59;1.50;;;1.30;;
75744;SDS011;64359;51.366;-0.222;2022-11-20T03:47:04;2.10;;;1.90;;
75744;SDS011;64359;51.366;-0.222;2022-11-20T03:48:08;1.90;;;1.60;;
75744;SDS011;64359;51.366;-0.222;2022-11-20T03:49:13;2.30;;;1.10;;
75744;SDS011;64359;51.366;-0.222;2022-11-20T03:50:17;1.60;;;1.30;;
75744;SDS011;64359;51.366;-0.222;2022-11-20T03:51:22;1.20;;;1.10;;
75744;SDS011;64359;51.366;-0.222;2022-11-20T03:52:27;2.10;;;1.80;;
75744;SDS011;64359;51.366;-0.222;2022-11-20T03:53:32;2.00;;;1.80;;
75744;SDS011;64359;51.366;-0.222;2022-11-20T03:54:36;2.10;;;1.80;;
75744;SDS011;64359;51.366;-0.222;2022-11-20T03:55:40;1.90;;;1.80;;
75744;SDS011;64359;51.366;-0.222;2022-11-20T03:56:45;1.20;;;1.20;;
75744;SDS011;64359;51.366;-0.222;2022-11-20T03:57:49;1.90;;;1.50;;
75744;SDS011;64359;51.366;-0.222;2022-11-20T03:58:54;1.70;;;1.60;;
75744;SDS011;64359;51.366;-0.222;2022-11-20T03:59:58;1.30;;;1.20;;
75744;SDS011;64359;51.366;-0.222;2022-11-20T04:01:10;2.90;;;1.80;;
75744;SDS011;64359;51.366;-0.222;2022-11-20T04:02:16;2.30;;;2.00;;
75744;SDS011;64359;51.366;-0.222;2022-11-20T04:03:20;1.50;;;1.20;;
75744;SDS011;64359;51.366;-0.222;2022-11-20T04:04:25;1.90;;;1.20;;
75744;SDS011;64359;51.366;-0.222;2022-11-20T04:05:29;2.30;;;1.50;;
75744;SDS011;64359;51.366;-0.222;2022-11-20T04:06:36;1.50;;;1.40;;
75744;SDS011;64359;51.366;-0.222;2022-11-20T04:07:40;1.50;;;1.40;;
75744;SDS011;64359;51.366;-0.222;2022-11-20T04:08:44;1.70;;;1.40;;
75744;SDS011;64359;51.366;-0.222;2022-11-20T04:09:49;1.10;;;1.00;;
75744;SDS011;64359;51.366;-0.222;2022-11-20T04:10:53;2.20;;;1.60;;
75744;SDS011;64359;51.366;-0.222;2022-11-20T04:11:58;1.70;;;1.50;;
75744;SDS011;64359;51.366;-0.222;2022-11-20T04:13:02;2.00;;;2.30;;
75744;SDS011;64359;51.366;-0.222;2022-11-20T04:14:11;1.70;;;1.60;;
75744;SDS011;64359;51.366;-0.222;2022-11-20T04:15:17;1.70;;;1.50;;
75744;SDS011;64359;51.366;-0.222;2022-11-20T04:16:21;1.90;;;1.30;;
75744;SDS011;64359;51.366;-0.222;2022-11-20T04:17:26;2.00;;;1.40;;
75744;SDS011;64359;51.366;-0.222;2022-11-20T04:18:31;2.00;;;1.60;;
75744;SDS011;64359;51.366;-0.222;2022-11-20T04:19:35;1.30;;;1.20;;
75744;SDS011;64359;51.366;-0.222;2022-11-20T04:20:39;1.90;;;1.70;;
75744;SDS011;64359;51.366;-0.222;2022-11-20T04:21:44;1.80;;;1.40;;
75744;SDS011;64359;51.366;-0.222;2022-11-20T04:22:49;1.90;;;1.70;;
75744;SDS011;64359;51.366;-0.222;2022-11-20T04:23:55;1.40;;;1.30;;
75744;SDS011;64359;51.366;-0.222;2022-11-20T04:25:00;2.00;;;1.30;;
75744;SDS011;64359;51.366;-0.222;2022-11-20T04:26:05;2.00;;;1.80;;
75744;SDS011;64359;51.366;-0.222;2022-11-20T04:27:11;1.90;;;1.70;;
75744;SDS011;64359;51.366;-0.222;2022-11-20T04:28:15;3.40;;;1.30;;
75744;SDS011;64359;51.366;-0.222;2022-11-20T04:29:20;1.70;;;1.40;;
75744;SDS011;64359;51.366;-0.222;2022-11-20T04:30:24;1.70;;;1.30;;
75744;SDS011;64359;51.366;-0.222;2022-11-20T04:31:29;2.30;;;1.30;;
75744;SDS011;64359;51.366;-0.222;2022-11-20T04:32:35;1.70;;;1.30;;
75744;SDS011;64359;51.366;-0.222;2022-11-20T04:33:39;1.70;;;1.20;;
75744;SDS011;64359;51.366;-0.222;2022-11-20T04:35:05;1.40;;;1.30;;
75744;SDS011;64359;51.366;-0.222;2022-11-20T04:36:11;1.40;;;1.10;;
75744;SDS011;64359;51.366;-0.222;2022-11-20T04:37:17;1.30;;;1.20;;
75744;SDS011;64359;51.366;-0.222;2022-11-20T04:38:22;1.40;;;1.30;;
75744;SDS011;64359;51.366;-0.222;2022-11-20T04:39:26;1.30;;;1.20;;
75744;SDS011;64359;51.366;-0.222;2022-11-20T04:40:31;1.70;;;1.30;;
75744;SDS011;64359;51.366;-0.222;2022-11-20T04:41:36;1.80;;;1.30;;
75744;SDS011;64359;51.366;-0.222;2022-11-20T04:42:41;1.40;;;1.20;;
75744;SDS011;64359;51.366;-0.222;2022-11-20T04:43:47;2.10;;;1.30;;
75744;SDS011;64359;51.366;-0.222;2022-11-20T04:44:52;2.80;;;1.40;;
75744;SDS011;64359;51.366;-0.222;2022-11-20T04:45:58;1.30;;;1.20;;
75744;SDS011;64359;51.366;-0.222;2022-11-20T04:47:04;1.30;;;1.20;;
75744;SDS011;64359;51.366;-0.222;2022-11-20T04:48:09;1.50;;;1.40;;
75744;SDS011;64359;51.366;-0.222;2022-11-20T04:49:13;1.50;;;1.40;;
75744;SDS011;64359;51.366;-0.222;2022-11-20T04:50:18;1.30;;;1.10;;
75744;SDS011;64359;51.366;-0.222;2022-11-20T04:51:22;2.60;;;1.50;;
75744;SDS011;64359;51.366;-0.222;2022-11-20T04:52:27;2.30;;;1.30;;
75744;SDS011;64359;51.366;-0.222;2022-11-20T04:53:31;2.50;;;1.40;;
75744;SDS011;64359;51.366;-0.222;2022-11-20T04:54:35;1.70;;;1.60;;
75744;SDS011;64359;51.366;-0.222;2022-11-20T04:55:40;1.30;;;1.20;;
75744;SDS011;64359;51.366;-0.222;2022-11-20T04:56:44;2.20;;;1.40;;
75744;SDS011;64359;51.366;-0.222;2022-11-20T04:57:51;2.00;;;1.40;;
75744;SDS011;64359;51.366;-0.222;2022-11-20T04:58:55;1.40;;;1.10;;
75744;SDS011;64359;51.366;-0.222;2022-11-20T05:00:02;1.40;;;1.30;;
75744;SDS011;64359;51.366;-0.222;2022-11-20T05:01:09;1.40;;;1.30;;
75744;SDS011;64359;51.366;-0.222;2022-11-20T05:02:14;1.90;;;1.40;;
75744;SDS011;64359;51.366;-0.222;2022-11-20T05:03:18;1.80;;;1.30;;
75744;SDS011;64359;51.366;-0.222;2022-11-20T05:04:23;2.30;;;1.10;;
75744;SDS011;64359;51.366;-0.222;2022-11-20T05:05:27;1.30;;;1.20;;
75744;SDS011;64359;51.366;-0.222;2022-11-20T05:06:32;2.60;;;1.60;;
75744;SDS011;64359;51.366;-0.222;2022-11-20T05:07:36;1.70;;;1.60;;
75744;SDS011;64359;51.366;-0.222;2022-11-20T05:08:41;1.60;;;1.50;;
75744;SDS011;64359;51.366;-0.222;2022-11-20T05:09:45;1.40;;;1.30;;
75744;SDS011;64359;51.366;-0.222;2022-11-20T05:10:50;1.60;;;1.20;;
75744;SDS011;64359;51.366;-0.222;2022-11-20T05:11:54;1.50;;;1.40;;
75744;SDS011;64359;51.366;-0.222;2022-11-20T05:12:58;2.10;;;1.40;;
75744;SDS011;64359;51.366;-0.222;2022-11-20T05:14:03;1.50;;;1.20;;
75744;SDS011;64359;51.366;-0.222;2022-11-20T05:15:08;1.40;;;1.30;;
75744;SDS011;64359;51.366;-0.222;2022-11-20T05:16:13;1.70;;;1.60;;
75744;SDS011;64359;51.366;-0.222;2022-11-20T05:17:20;1.70;;;1.50;;
75744;SDS011;64359;51.366;-0.222;2022-11-20T05:18:24;1.90;;;1.10;;
75744;SDS011;64359;51.366;-0.222;2022-11-20T05:19:29;2.00;;;1.40;;
75744;SDS011;64359;51.366;-0.222;2022-11-20T05:20:33;2.70;;;1.30;;
75744;SDS011;64359;51.366;-0.222;2022-11-20T05:21:38;1.60;;;1.00;;
75744;SDS011;64359;51.366;-0.222;2022-11-20T05:22:42;1.00;;;1.00;;
75744;SDS011;64359;51.366;-0.222;2022-11-20T05:23:46;2.60;;;1.50;;
75744;SDS011;64359;51.366;-0.222;2022-11-20T05:24:51;2.40;;;1.30;;
75744;SDS011;64359;51.366;-0.222;2022-11-20T05:25:56;1.30;;;1.10;;
75744;SDS011;64359;51.366;-0.222;2022-11-20T05:27:01;2.10;;;1.50;;
75744;SDS011;64359;51.366;-0.222;2022-11-20T05:28:05;2.00;;;1.10;;
75744;SDS011;64359;51.366;-0.222;2022-11-20T05:29:11;3.20;;;1.60;;
75744;SDS011;64359;51.366;-0.222;2022-11-20T05:30:18;4.70;;;1.20;;
75744;SDS011;64359;51.366;-0.222;2022-11-20T05:31:23;2.70;;;1.60;;
75744;SDS011;64359;51.366;-0.222;2022-11-20T05:32:28;3.00;;;1.40;;
75744;SDS011;64359;51.366;-0.222;2022-11-20T05:33:34;1.80;;;1.50;;
75744;SDS011;64359;51.366;-0.222;2022-11-20T05:34:39;1.60;;;1.50;;
75744;SDS011;64359;51.366;-0.222;2022-11-20T05:35:43;2.10;;;1.30;;
75744;SDS011;64359;51.366;-0.222;2022-11-20T05:36:49;1.90;;;1.20;;
75744;SDS011;64359;51.366;-0.222;2022-11-20T05:37:53;2.70;;;1.50;;
75744;SDS011;64359;51.366;-0.222;2022-11-20T05:38:58;1.60;;;1.20;;
75744;SDS011;64359;51.366;-0.222;2022-11-20T05:40:03;2.90;;;1.30;;
75744;SDS011;64359;51.366;-0.222;2022-11-20T05:41:10;1.90;;;1.30;;
75744;SDS011;64359;51.366;-0.222;2022-11-20T05:42:16;4.50;;;1.40;;
75744;SDS011;64359;51.366;-0.222;2022-11-20T05:43:33;2.10;;;1.20;;
75744;SDS011;64359;51.366;-0.222;2022-11-20T05:44:38;2.40;;;1.50;;
75744;SDS011;64359;51.366;-0.222;2022-11-20T05:45:43;4.10;;;1.50;;
75744;SDS011;64359;51.366;-0.222;2022-11-20T05:46:56;2.30;;;1.30;;
75744;SDS011;64359;51.366;-0.222;2022-11-20T05:48:00;2.20;;;1.40;;
75744;SDS011;64359;51.366;-0.222;2022-11-20T05:49:05;2.70;;;1.20;;
75744;SDS011;64359;51.366;-0.222;2022-11-20T05:50:10;3.90;;;1.50;;
75744;SDS011;64359;51.366;-0.222;2022-11-20T05:51:15;2.40;;;1.30;;
75744;SDS011;64359;51.366;-0.222;2022-11-20T05:52:21;2.90;;;1.30;;
75744;SDS011;64359;51.366;-0.222;2022-11-20T05:53:25;3.40;;;1.60;;
75744;SDS011;64359;51.366;-0.222;2022-11-20T05:54:30;3.00;;;1.30;;
75744;SDS011;64359;51.366;-0.222;2022-11-20T05:55:35;3.10;;;1.40;;
75744;SDS011;64359;51.366;-0.222;2022-11-20T05:56:39;6.20;;;1.50;;
75744;SDS011;64359;51.366;-0.222;2022-11-20T05:57:44;2.30;;;1.50;;
75744;SDS011;64359;51.366;-0.222;2022-11-20T05:58:48;4.40;;;1.50;;
75744;SDS011;64359;51.366;-0.222;2022-11-20T05:59:53;4.50;;;1.20;;
75744;SDS011;64359;51.366;-0.222;2022-11-20T06:01:03;4.20;;;1.30;;
75744;SDS011;64359;51.366;-0.222;2022-11-20T06:02:10;1.90;;;1.40;;
75744;SDS011;64359;51.366;-0.222;2022-11-20T06:03:14;1.40;;;1.10;;
75744;SDS011;64359;51.366;-0.222;2022-11-20T06:04:19;4.20;;;1.30;;
75744;SDS011;64359;51.366;-0.222;2022-11-20T06:05:23;5.10;;;1.40;;
75744;SDS011;64359;51.366;-0.222;2022-11-20T06:06:27;2.40;;;1.30;;
75744;SDS011;64359;51.366;-0.222;2022-11-20T06:07:32;3.00;;;1.30;;
75744;SDS011;64359;51.366;-0.222;2022-11-20T06:08:36;1.30;;;1.20;;
75744;SDS011;64359;51.366;-0.222;2022-11-20T06:09:41;2.90;;;1.50;;
75744;SDS011;64359;51.366;-0.222;2022-11-20T06:10:46;4.00;;;1.90;;
75744;SDS011;64359;51.366;-0.222;2022-11-20T06:11:50;2.40;;;1.60;;
75744;SDS011;64359;51.366;-0.222;2022-11-20T06:12:54;2.90;;;1.90;;
75744;SDS011;64359;51.366;-0.222;2022-11-20T06:14:01;2.70;;;1.80;;
75744;SDS011;64359;51.366;-0.222;2022-11-20T06:15:06;1.90;;;1.40;;
75744;SDS011;64359;51.366;-0.222;2022-11-20T06:16:13;1.90;;;1.50;;
75744;SDS011;64359;51.366;-0.222;2022-11-20T06:17:19;2.90;;;1.20;;
75744;SDS011;64359;51.366;-0.222;2022-11-20T06:18:25;2.30;;;1.30;;
75744;SDS011;64359;51.366;-0.222;2022-11-20T06:19:30;4.90;;;1.40;;
75744;SDS011;64359;51.366;-0.222;2022-11-20T06:20:35;1.10;;;1.00;;
75744;SDS011;64359;51.366;-0.222;2022-11-20T06:21:39;2.90;;;1.50;;
75744;SDS011;64359;51.366;-0.222;2022-11-20T06:22:44;1.20;;;1.10;;
75744;SDS011;64359;51.366;-0.222;2022-11-20T06:23:48;4.40;;;1.10;;
75744;SDS011;64359;51.366;-0.222;2022-11-20T06:24:54;1.70;;;1.60;;
75744;SDS011;64359;51.366;-0.222;2022-11-20T06:26:00;2.70;;;1.30;;
75744;SDS011;64359;51.366;-0.222;2022-11-20T06:27:06;3.20;;;1.20;;
75744;SDS011;64359;51.366;-0.222;2022-11-20T06:28:10;3.00;;;1.40;;
75744;SDS011;64359;51.366;-0.222;2022-11-20T06:29:17;1.40;;;1.30;;
75744;SDS011;64359;51.366;-0.222;2022-11-20T06:30:21;2.20;;;1.40;;
75744;SDS011;64359;51.366;-0.222;2022-11-20T06:31:26;2.70;;;1.30;;
75744;SDS011;64359;51.366;-0.222;2022-11-20T06:32:31;1.60;;;1.30;;
75744;SDS011;64359;51.366;-0.222;2022-11-20T06:33:36;1.00;;;1.00;;
75744;SDS011;64359;51.366;-0.222;2022-11-20T06:34:41;2.70;;;1.30;;
75744;SDS011;64359;51.366;-0.222;2022-11-20T06:35:46;1.10;;;1.00;;
75744;SDS011;64359;51.366;-0.222;2022-11-20T06:36:51;2.30;;;1.20;;